Time;durP1;ratioP1;P1;durP2;ratioP2;P2;SDS_P1;SDS_P2;PMS_P1;PMS_P2;Temp;Humidity;BMP_temperature;BMP_pressure;BME280_temperature;BME280_humidity;BME280_pressure;Samples;Min_cycle;Max_cycle;Signal;HPM_P1;HPM_P2
2023/04/30 00:01:57;;;;;;;4.93;1.60;;;6.50;99.90;;;;;;5073483;28;20041;-41
2023/04/30 00:04:23;;;;;;;3.07;1.50;;;6.50;99.90;;;;;;5074609;28;20048;-41
2023/04/30 00:06:49;;;;;;;2.43;1.17;;;6.50;99.90;;;;;;5074808;28;20067;-41
2023/04/30 00:09:14;;;;;;;3.33;1.13;;;6.50;99.90;;;;;;5074987;28;20522;-41
2023/04/30 00:11:40;;;;;;;3.53;1.30;;;6.50;99.90;;;;;;5073754;28;20391;-41
2023/04/30 00:14:06;;;;;;;4.17;1.57;;;6.50;99.90;;;;;;5073465;28;20365;-41
2023/04/30 00:16:31;;;;;;;4.27;1.30;;;6.50;99.90;;;;;;5074337;28;20052;-41
2023/04/30 00:18:57;;;;;;;4.27;1.57;;;6.50;99.90;;;;;;5074200;28;20051;-41
2023/04/30 00:21:22;;;;;;;5.27;1.63;;;6.50;99.90;;;;;;5074161;28;20506;-41
2023/04/30 00:23:48;;;;;;;5.40;1.40;;;6.50;99.90;;;;;;5074225;28;20472;-41
2023/04/30 00:26:14;;;;;;;3.95;1.38;;;6.50;99.90;;;;;;5074272;28;20392;-41
2023/04/30 00:28:40;;;;;;;3.50;1.50;;;6.50;99.90;;;;;;5074150;28;20067;-41
2023/04/30 00:31:08;;;;;;;4.43;1.63;;;6.50;99.90;;;;;;5074205;28;20048;-41
2023/04/30 00:33:34;;;;;;;4.10;1.48;;;6.50;99.90;;;;;;5074195;28;20049;-41
2023/04/30 00:36:00;;;;;;;3.88;1.50;;;6.50;99.90;;;;;;5073889;28;20044;-41
2023/04/30 00:38:25;;;;;;;7.73;1.50;;;6.50;99.90;;;;;;5073312;28;20036;-41
2023/04/30 00:40:52;;;;;;;3.33;1.70;;;6.50;99.90;;;;;;5073807;28;20072;-41
2023/04/30 00:43:17;;;;;;;3.22;1.40;;;6.50;99.90;;;;;;5073953;28;20048;-41
2023/04/30 00:45:43;;;;;;;4.77;1.80;;;6.40;99.90;;;;;;5073900;28;20045;-41
2023/04/30 00:48:09;;;;;;;2.40;1.10;;;6.40;99.90;;;;;;5073774;28;20044;-41
2023/04/30 00:50:38;;;;;;;2.80;1.13;;;6.40;99.90;;;;;;5073745;28;20149;-41
2023/04/30 00:53:05;;;;;;;2.80;1.10;;;6.30;99.90;;;;;;5072613;28;20206;-41
2023/04/30 00:55:30;;;;;;;3.17;1.15;;;6.20;99.90;;;;;;5073871;28;20056;-41
2023/04/30 00:57:57;;;;;;;2.60;1.20;;;6.10;99.90;;;;;;5073565;28;20048;-41
2023/04/30 01:00:23;;;;;;;;;;;6.10;99.90;;;;;;5074211;28;20384;-41
2023/04/30 01:02:49;;;;;;;1.60;0.70;;;6.00;99.90;;;;;;5073614;28;19921;-42
2023/04/30 01:05:15;;;;;;;2.43;0.90;;;5.90;99.90;;;;;;5073750;28;20040;-41
2023/04/30 01:07:44;;;;;;;1.93;0.80;;;5.90;99.90;;;;;;5073825;28;20109;-41
2023/04/30 01:10:11;;;;;;;1.95;0.82;;;5.80;99.90;;;;;;5073659;28;20052;-41
2023/04/30 01:12:37;;;;;;;2.38;0.90;;;5.80;99.90;;;;;;5073494;28;20044;-41
2023/04/30 01:15:09;;;;;;;2.25;0.90;;;5.80;99.90;;;;;;5073470;28;20113;-41
2023/04/30 01:17:46;;;;;;;1.52;0.80;;;5.80;99.90;;;;;;5073376;28;20048;-41
2023/04/30 01:20:12;;;;;;;;;;;5.80;99.90;;;;;;5074105;28;20131;-41
2023/04/30 01:22:59;;;;;;;1.73;0.80;;;5.80;99.90;;;;;;5072461;28;20015;-41
2023/04/30 01:25:44;;;;;;;3.13;1.00;;;5.80;99.90;;;;;;5073501;28;20136;-41
2023/04/30 01:28:19;;;;;;;3.13;1.17;;;5.90;99.90;;;;;;5073765;28;20072;-41
2023/04/30 01:30:45;;;;;;;1.80;0.85;;;5.90;99.90;;;;;;5073493;28;20048;-40
2023/04/30 01:33:11;;;;;;;2.43;1.17;;;5.90;99.90;;;;;;5072432;28;20109;-41
2023/04/30 01:35:42;;;;;;;2.30;1.05;;;5.80;99.90;;;;;;5073593;28;20094;-41
2023/04/30 01:38:27;;;;;;;2.88;1.25;;;5.80;99.90;;;;;;5073254;28;20083;-41
2023/04/30 01:41:02;;;;;;;2.47;1.10;;;5.80;99.90;;;;;;5073356;28;20499;-41
2023/04/30 01:43:46;;;;;;;2.72;1.33;;;5.80;99.90;;;;;;5073259;28;20044;-41
2023/04/30 01:46:26;;;;;;;1.90;1.20;;;5.80;99.90;;;;;;5073343;28;20516;-41
2023/04/30 01:49:13;;;;;;;2.47;1.15;;;5.80;99.90;;;;;;5073044;28;20048;-41
2023/04/30 01:51:46;;;;;;;2.35;0.90;;;5.80;99.90;;;;;;5075102;28;20123;-41
2023/04/30 01:54:21;;;;;;;3.22;1.30;;;5.80;99.90;;;;;;5077036;28;20148;-41
2023/04/30 01:57:06;;;;;;;3.05;0.95;;;5.80;99.90;;;;;;5077077;28;20056;-41
2023/04/30 01:59:34;;;;;;;2.33;1.10;;;5.80;99.90;;;;;;5077172;28;20411;-41
2023/04/30 02:02:00;;;;;;;2.08;1.00;;;5.70;99.90;;;;;;5075859;28;20066;-41
2023/04/30 02:04:26;;;;;;;2.58;0.88;;;5.70;99.90;;;;;;5075928;28;20507;-41
2023/04/30 02:06:52;;;;;;;3.93;0.80;;;5.60;99.90;;;;;;5076823;28;20071;-41
2023/04/30 02:09:18;;;;;;;1.90;0.90;;;5.50;99.90;;;;;;5076761;28;20487;-41
2023/04/30 02:11:43;;;;;;;1.97;1.00;;;5.50;99.90;;;;;;5075575;28;20052;-42
2023/04/30 02:14:09;;;;;;;1.43;0.67;;;5.40;99.90;;;;;;5076451;28;20047;-41
2023/04/30 02:16:35;;;;;;;1.47;0.77;;;5.40;99.90;;;;;;5076694;28;20048;-41
2023/04/30 02:19:01;;;;;;;0.97;0.60;;;5.40;99.90;;;;;;5076601;28;20106;-41
2023/04/30 02:21:27;;;;;;;3.07;0.80;;;5.30;99.90;;;;;;5076559;28;20109;-41
2023/04/30 02:23:52;;;;;;;1.40;0.70;;;5.20;99.90;;;;;;5075260;28;20885;-41
2023/04/30 02:26:18;;;;;;;2.03;0.83;;;5.30;99.90;;;;;;5076229;28;20055;-41
2023/04/30 02:28:44;;;;;;;2.30;0.87;;;5.30;99.90;;;;;;5075488;28;20060;-41
2023/04/30 02:31:10;;;;;;;1.93;0.67;;;5.30;99.90;;;;;;5076433;28;20398;-41
2023/04/30 02:33:36;;;;;;;1.90;0.90;;;5.40;99.90;;;;;;5076303;28;20043;-41
2023/04/30 02:36:02;;;;;;;2.73;0.90;;;5.40;99.90;;;;;;5075371;28;20044;-41
2023/04/30 02:38:27;;;;;;;2.57;0.90;;;5.50;99.90;;;;;;5075109;28;20080;-41
2023/04/30 02:40:53;;;;;;;3.30;1.00;;;5.50;99.90;;;;;;5076301;28;20170;-41
2023/04/30 02:43:19;;;;;;;4.07;1.20;;;5.50;99.90;;;;;;5076132;28;20048;-41
2023/04/30 02:45:44;;;;;;;2.63;1.40;;;5.50;99.90;;;;;;5076145;28;20091;-41
2023/04/30 02:48:10;;;;;;;3.13;1.00;;;5.50;99.90;;;;;;5076075;28;20484;-41
2023/04/30 02:50:36;;;;;;;3.77;1.10;;;5.60;99.90;;;;;;5076102;28;20048;-41
2023/04/30 02:53:01;;;;;;;1.57;0.77;;;5.60;99.90;;;;;;5075928;28;20049;-41
2023/04/30 02:55:27;;;;;;;3.43;1.07;;;5.70;99.90;;;;;;5075785;28;20054;-41
2023/04/30 02:57:53;;;;;;;1.00;0.47;;;5.70;99.90;;;;;;5075756;28;20048;-41
2023/04/30 03:00:19;;;;;;;0.87;0.30;;;5.70;99.90;;;;;;5076240;28;20087;-41
2023/04/30 03:02:45;;;;;;;0.83;0.50;;;5.60;99.90;;;;;;5075625;28;20049;-41
2023/04/30 03:05:10;;;;;;;0.60;0.30;;;5.60;99.90;;;;;;5074577;28;20283;-41
2023/04/30 03:07:36;;;;;;;0.97;0.50;;;5.50;99.90;;;;;;5075684;28;20047;-41
2023/04/30 03:10:02;;;;;;;1.07;0.50;;;5.40;99.90;;;;;;5075553;28;20051;-45
2023/04/30 03:12:27;;;;;;;2.13;0.50;;;5.40;99.90;;;;;;5074682;28;20044;-41
2023/04/30 03:14:53;;;;;;;1.50;0.50;;;5.40;99.90;;;;;;5075618;28;20044;-41
2023/04/30 03:17:19;;;;;;;1.53;0.73;;;5.40;99.90;;;;;;5075662;28;20055;-41
2023/04/30 03:19:44;;;;;;;1.53;0.80;;;5.40;99.90;;;;;;5075472;28;20048;-41
2023/04/30 03:22:10;;;;;;;1.13;0.60;;;5.40;99.90;;;;;;5075215;28;20041;-42
2023/04/30 03:24:36;;;;;;;1.43;0.53;;;5.40;99.90;;;;;;5074491;28;20055;-41
2023/04/30 03:27:02;;;;;;;1.57;0.80;;;5.50;99.90;;;;;;5075827;28;20113;-41
2023/04/30 03:29:27;;;;;;;1.70;0.77;;;5.50;99.90;;;;;;5057692;28;20422;-41
2023/04/30 03:31:53;;;;;;;2.00;0.90;;;5.50;99.90;;;;;;5075573;28;20103;-41
2023/04/30 03:34:19;;;;;;;2.00;0.80;;;5.50;99.90;;;;;;5075139;28;20055;-41
2023/04/30 03:36:44;;;;;;;1.63;0.80;;;5.50;99.90;;;;;;5075168;28;20048;-41
2023/04/30 03:39:10;;;;;;;2.83;0.90;;;5.50;99.90;;;;;;5075023;28;20325;-41
2023/04/30 03:41:36;;;;;;;2.90;0.90;;;5.60;99.90;;;;;;5075031;28;20045;-41
2023/04/30 03:44:01;;;;;;;3.00;1.17;;;5.50;99.90;;;;;;5074935;28;20036;-41
2023/04/30 03:46:27;;;;;;;2.17;0.87;;;5.60;99.90;;;;;;5074908;28;20395;-41
2023/04/30 03:48:53;;;;;;;2.53;1.10;;;5.60;99.90;;;;;;5074937;28;20049;-41
2023/04/30 03:51:22;;;;;;;4.67;1.63;;;5.60;99.90;;;;;;5074887;28;20137;-41
2023/04/30 03:53:47;;;;;;;2.72;1.42;;;5.60;99.90;;;;;;5073742;28;20091;-41
2023/04/30 03:56:14;;;;;;;2.60;1.20;;;5.60;99.90;;;;;;5074674;28;20137;-41
2023/04/30 03:58:39;;;;;;;2.10;1.00;;;5.50;99.90;;;;;;5074859;28;20048;-41
2023/04/30 04:01:05;;;;;;;3.50;1.37;;;5.50;99.90;;;;;;5073621;28;20544;-41
2023/04/30 04:03:33;;;;;;;2.77;1.30;;;5.50;99.90;;;;;;5073745;28;20044;-41
2023/04/30 04:05:59;;;;;;;4.60;1.38;;;5.50;99.90;;;;;;5074334;28;20048;-41
2023/04/30 04:08:24;;;;;;;2.80;1.33;;;5.50;99.90;;;;;;5074456;28;20083;-41
2023/04/30 04:10:50;;;;;;;3.47;1.40;;;5.50;99.90;;;;;;5074172;28;20381;-41
2023/04/30 04:13:16;;;;;;;3.53;1.53;;;5.60;99.90;;;;;;5075058;28;20047;-41
2023/04/30 04:15:42;;;;;;;3.40;1.27;;;5.60;99.90;;;;;;5074078;28;20086;-41
2023/04/30 04:18:07;;;;;;;1.97;0.90;;;5.60;99.90;;;;;;5074218;28;20506;-41
2023/04/30 04:20:33;;;;;;;2.83;1.00;;;5.60;99.90;;;;;;5073281;28;20051;-41
2023/04/30 04:22:58;;;;;;;6.23;1.60;;;5.60;99.90;;;;;;5074270;28;20036;-41
2023/04/30 04:25:26;;;;;;;2.87;1.17;;;5.60;99.90;;;;;;5074152;28;20051;-41
2023/04/30 04:27:52;;;;;;;3.17;1.08;;;5.60;99.90;;;;;;5074430;28;20086;-41
2023/04/30 04:30:18;;;;;;;1.97;0.90;;;5.60;99.90;;;;;;5074321;28;20090;-41
2023/04/30 04:32:49;;;;;;;5.47;1.40;;;5.70;99.90;;;;;;5074103;28;20105;-41
2023/04/30 04:35:16;;;;;;;3.38;1.00;;;5.70;99.90;;;;;;5073104;28;20060;-40
2023/04/30 04:37:41;;;;;;;2.22;1.20;;;5.70;99.90;;;;;;5074036;28;20055;-41
2023/04/30 04:40:08;;;;;;;2.63;0.87;;;5.70;99.90;;;;;;5074032;28;20042;-41
2023/04/30 04:42:33;;;;;;;2.42;0.85;;;5.70;99.90;;;;;;5073984;28;20050;-41
2023/04/30 04:44:59;;;;;;;4.60;1.07;;;5.70;99.90;;;;;;5074026;28;20127;-41
2023/04/30 04:47:25;;;;;;;2.63;1.23;;;5.70;99.90;;;;;;5073829;28;20044;-41
2023/04/30 04:49:51;;;;;;;2.17;0.80;;;5.80;99.90;;;;;;5073942;28;20059;-41
2023/04/30 04:52:17;;;;;;;1.90;0.90;;;5.80;99.90;;;;;;5073888;28;20044;-41
2023/04/30 04:54:43;;;;;;;2.27;0.90;;;5.90;99.90;;;;;;5072218;28;20447;-41
2023/04/30 04:57:08;;;;;;;2.40;1.00;;;5.80;99.90;;;;;;5072703;28;20044;-41
2023/04/30 04:59:34;;;;;;;3.30;1.13;;;5.90;99.90;;;;;;5073818;28;20059;-41
2023/04/30 05:02:00;;;;;;;2.33;0.93;;;5.90;99.90;;;;;;5073693;28;20051;-41
2023/04/30 05:04:26;;;;;;;3.43;0.97;;;6.00;99.90;;;;;;5072810;28;20048;-41
2023/04/30 05:06:53;;;;;;;3.72;1.35;;;6.00;99.90;;;;;;5073788;28;20052;-44
2023/04/30 05:09:19;;;;;;;2.20;0.95;;;6.00;99.90;;;;;;5073497;28;20451;-41
2023/04/30 05:11:47;;;;;;;3.60;1.23;;;6.00;99.90;;;;;;5072521;28;20048;-41
2023/04/30 05:14:13;;;;;;;3.42;1.30;;;6.00;99.90;;;;;;5073899;28;20494;-41
2023/04/30 05:16:39;;;;;;;2.63;1.35;;;6.00;99.90;;;;;;5073857;28;20041;-41
2023/04/30 05:19:05;;;;;;;2.57;1.13;;;6.00;99.90;;;;;;5073625;28;20047;-41
2023/04/30 05:21:31;;;;;;;3.15;1.40;;;6.10;99.90;;;;;;5073542;28;20122;-41
2023/04/30 05:23:57;;;;;;;5.47;1.40;;;6.10;99.90;;;;;;5073416;28;20510;-41
2023/04/30 05:26:23;;;;;;;2.97;1.47;;;6.10;99.90;;;;;;5074665;28;20369;-41
2023/04/30 05:28:51;;;;;;;3.00;1.07;;;6.10;99.90;;;;;;5077705;28;20048;-41
2023/04/30 05:31:17;;;;;;;4.05;1.23;;;6.20;99.90;;;;;;5077646;28;20044;-41
2023/04/30 05:33:42;;;;;;;4.37;1.30;;;6.20;99.90;;;;;;5077546;28;20373;-41
2023/04/30 05:36:09;;;;;;;2.97;1.17;;;6.30;99.90;;;;;;5076328;28;20045;-42
2023/04/30 05:38:35;;;;;;;;;;;6.30;99.90;;;;;;5076929;28;20045;-41
2023/04/30 05:41:00;;;;;;;3.08;1.20;;;6.40;99.90;;;;;;5077468;28;20331;-41
2023/04/30 05:43:26;;;;;;;4.10;1.70;;;6.40;99.90;;;;;;5077307;28;20037;-42
2023/04/30 05:45:52;;;;;;;3.10;1.40;;;6.50;99.90;;;;;;5077401;28;20044;-41
2023/04/30 05:48:17;;;;;;;4.53;1.53;;;6.60;99.90;;;;;;5077250;28;20045;-41
2023/04/30 05:50:43;;;;;;;5.33;2.03;;;6.70;99.90;;;;;;5077105;28;20044;-41
2023/04/30 05:53:09;;;;;;;6.80;1.93;;;6.70;99.90;;;;;;5076967;28;20056;-41
2023/04/30 05:55:35;;;;;;;3.33;1.63;;;6.80;99.90;;;;;;5077132;28;20465;-41
2023/04/30 05:58:01;;;;;;;4.73;2.07;;;7.00;99.90;;;;;;5077112;28;20048;-41
2023/04/30 06:00:26;;;;;;;3.90;1.63;;;7.20;99.90;;;;;;5076957;28;20109;-41
2023/04/30 06:02:52;;;;;;;5.10;1.97;;;7.40;99.90;;;;;;5076789;28;20463;-41
2023/04/30 06:05:18;;;;;;;4.70;2.30;;;7.60;99.90;;;;;;5076801;28;20044;-42
2023/04/30 06:07:44;;;;;;;5.67;1.67;;;7.70;99.90;;;;;;5076652;28;20289;-41
2023/04/30 06:10:11;;;;;;;2.77;1.50;;;7.70;99.90;;;;;;5076885;28;20464;-41
2023/04/30 06:12:38;;;;;;;5.32;1.58;;;7.70;99.90;;;;;;5075832;28;20049;-41
2023/04/30 06:15:04;;;;;;;;;;;7.80;99.90;;;;;;5076460;28;20049;-41
2023/04/30 06:17:29;;;;;;;3.58;1.50;;;7.80;99.90;;;;;;5076969;28;20282;-41
2023/04/30 06:19:57;;;;;;;4.27;1.60;;;7.90;99.90;;;;;;5076664;28;20050;-41
2023/04/30 06:22:23;;;;;;;5.55;1.40;;;7.90;99.90;;;;;;5076378;28;20128;-41
2023/04/30 06:24:49;;;;;;;5.83;1.50;;;7.90;99.90;;;;;;5076648;28;20127;-41
2023/04/30 06:27:14;;;;;;;3.97;1.53;;;7.90;99.90;;;;;;5076423;28;20048;-41
2023/04/30 06:29:40;;;;;;;5.70;1.60;;;8.00;99.90;;;;;;5076670;28;20044;-41
2023/04/30 06:32:06;;;;;;;4.13;1.60;;;8.00;99.90;;;;;;5075412;28;20568;-41
2023/04/30 06:34:32;;;;;;;3.63;1.47;;;8.00;99.90;;;;;;5076222;28;20080;-42
2023/04/30 06:36:57;;;;;;;4.03;1.60;;;8.00;99.90;;;;;;5074832;28;20287;-41
2023/04/30 06:39:23;;;;;;;5.40;1.67;;;8.00;99.90;;;;;;5076299;28;20044;-42
2023/04/30 06:41:49;;;;;;;4.57;1.50;;;8.00;99.90;;;;;;5075401;28;20091;-41
2023/04/30 06:44:15;;;;;;;5.22;1.35;;;8.00;99.90;;;;;;5075162;28;20136;-41
2023/04/30 06:46:41;;;;;;;5.90;1.23;;;8.00;99.90;;;;;;5075091;28;20051;-41
2023/04/30 06:49:07;;;;;;;3.00;1.10;;;8.00;99.90;;;;;;5075026;28;20472;-41
2023/04/30 06:51:32;;;;;;;2.37;1.10;;;8.00;99.90;;;;;;5075167;28;20084;-41
2023/04/30 06:53:58;;;;;;;5.63;1.00;;;8.00;99.90;;;;;;5076023;28;20056;-42
2023/04/30 06:56:24;;;;;;;5.70;1.30;;;8.10;99.90;;;;;;5075192;28;20055;-41
2023/04/30 06:58:50;;;;;;;2.47;0.90;;;8.00;99.90;;;;;;5075440;28;20442;-40
2023/04/30 07:01:16;;;;;;;4.30;1.00;;;8.10;99.90;;;;;;5074763;28;20471;-41
2023/04/30 07:03:42;;;;;;;6.65;1.23;;;8.20;99.90;;;;;;5075658;28;20480;-45
2023/04/30 07:06:07;;;;;;;3.97;0.90;;;8.20;99.90;;;;;;5075646;28;20052;-41
2023/04/30 07:08:33;;;;;;;4.07;0.77;;;8.30;99.90;;;;;;5076089;28;20044;-41
2023/04/30 07:10:59;;;;;;;4.50;1.47;;;8.40;99.90;;;;;;5075932;28;20067;-41
2023/04/30 07:13:25;;;;;;;4.07;2.03;;;8.40;99.90;;;;;;5075645;28;20483;-41
2023/04/30 07:15:50;;;;;;;4.30;0.90;;;8.50;99.90;;;;;;5075627;28;20384;-41
2023/04/30 07:18:16;;;;;;;3.10;0.80;;;8.50;99.90;;;;;;5075536;28;20052;-41
2023/04/30 07:20:42;;;;;;;2.83;0.90;;;8.60;99.90;;;;;;5075459;28;20415;-41
2023/04/30 07:23:07;;;;;;;3.47;0.80;;;8.60;99.90;;;;;;5075498;28;20452;-41
2023/04/30 07:25:34;;;;;;;2.67;0.90;;;8.70;99.90;;;;;;5075839;28;20433;-41
2023/04/30 07:27:59;;;;;;;4.43;0.73;;;8.70;99.90;;;;;;5074547;28;20102;-41
2023/04/30 07:30:25;;;;;;;5.47;1.00;;;8.80;99.90;;;;;;5075441;28;20503;-41
2023/04/30 07:32:51;;;;;;;4.23;0.90;;;8.90;99.90;;;;;;5074452;28;20047;-41
2023/04/30 07:35:16;;;;;;;5.13;1.00;;;9.10;99.90;;;;;;5074130;28;20446;-42
2023/04/30 07:37:42;;;;;;;5.27;0.90;;;9.10;99.90;;;;;;5075327;28;20052;-41
2023/04/30 07:40:11;;;;;;;2.73;0.70;;;9.10;99.90;;;;;;5074379;28;20051;-41
2023/04/30 07:42:40;;;;;;;5.05;1.10;;;9.20;99.90;;;;;;5075059;28;20040;-41
2023/04/30 07:45:06;;;;;;;3.13;1.00;;;9.20;99.90;;;;;;5074810;28;20572;-41
2023/04/30 07:47:32;;;;;;;2.95;1.05;;;9.30;99.90;;;;;;5074907;28;20067;-42
2023/04/30 07:49:58;;;;;;;4.80;1.10;;;9.30;99.90;;;;;;5074218;28;20480;-41
2023/04/30 07:52:23;;;;;;;3.13;0.90;;;9.50;99.90;;;;;;5074612;28;20119;-42
2023/04/30 07:54:49;;;;;;;5.53;1.20;;;9.50;99.90;;;;;;5073789;28;20056;-41
2023/04/30 07:57:15;;;;;;;4.17;0.80;;;9.50;99.90;;;;;;5073654;28;20045;-41
2023/04/30 07:59:40;;;;;;;2.93;1.07;;;9.60;99.90;;;;;;5074013;28;20094;-41
2023/04/30 08:02:08;;;;;;;2.60;0.97;;;9.70;99.90;;;;;;5074482;28;20041;-43
2023/04/30 08:04:34;;;;;;;2.40;0.90;;;9.70;99.90;;;;;;5073433;28;20087;-42
2023/04/30 08:07:01;;;;;;;4.47;1.10;;;9.60;99.90;;;;;;5074293;28;20083;-41
2023/04/30 08:09:26;;;;;;;2.85;1.00;;;9.60;99.90;;;;;;5074626;28;20053;-41
2023/04/30 08:11:52;;;;;;;4.93;0.90;;;9.50;99.90;;;;;;5056855;28;20479;-42
2023/04/30 08:14:19;;;;;;;4.57;1.03;;;9.50;99.90;;;;;;5073546;28;20087;-41
2023/04/30 08:16:44;;;;;;;5.13;1.10;;;9.50;99.90;;;;;;5073589;28;20443;-42
2023/04/30 08:19:10;;;;;;;2.23;0.80;;;9.50;99.90;;;;;;5073265;28;20087;-41
2023/04/30 08:21:36;;;;;;;4.17;1.10;;;9.50;99.90;;;;;;5056937;28;20045;-41
2023/04/30 08:24:02;;;;;;;3.00;1.10;;;9.60;99.90;;;;;;5056674;28;20036;-41
2023/04/30 08:26:27;;;;;;;2.17;1.00;;;9.60;99.90;;;;;;5074328;28;20426;-41
2023/04/30 08:28:53;;;;;;;3.47;0.83;;;9.70;99.90;;;;;;5073309;28;20052;-41
2023/04/30 08:31:19;;;;;;;5.30;1.70;;;9.70;99.90;;;;;;5073006;28;20182;-42
2023/04/30 08:33:45;;;;;;;3.90;1.63;;;9.70;99.90;;;;;;5072941;28;20052;-41
2023/04/30 08:36:10;;;;;;;6.33;1.10;;;9.80;99.90;;;;;;5073177;28;20049;-41
2023/04/30 08:38:37;;;;;;;3.53;1.00;;;9.80;99.90;;;;;;5073116;28;20045;-41
2023/04/30 08:41:11;;;;;;;3.10;1.27;;;9.80;99.90;;;;;;5074013;28;20080;-41
2023/04/30 08:43:38;;;;;;;4.25;1.13;;;9.90;99.90;;;;;;5073729;28;20189;-41
2023/04/30 08:46:04;;;;;;;4.55;0.98;;;9.90;99.90;;;;;;5073786;28;20045;-42
2023/04/30 08:48:30;;;;;;;;;;;9.90;99.90;;;;;;5074486;28;20052;-42
2023/04/30 08:51:01;;;;;;;6.55;1.10;;;9.90;99.90;;;;;;5074304;28;20011;-42
2023/04/30 08:53:27;;;;;;;5.30;1.00;;;10.00;99.90;;;;;;5074010;28;20135;-41
2023/04/30 08:55:52;;;;;;;5.80;1.00;;;10.00;99.90;;;;;;5074104;28;20518;-41
2023/04/30 08:58:18;;;;;;;2.37;1.03;;;10.00;99.90;;;;;;5072892;28;20040;-41
2023/04/30 09:00:44;;;;;;;1.80;0.80;;;10.00;99.90;;;;;;5073439;28;20049;-41
2023/04/30 09:03:09;;;;;;;2.80;0.97;;;9.90;99.90;;;;;;5073339;28;20080;-42
2023/04/30 09:05:37;;;;;;;4.73;1.00;;;9.90;99.90;;;;;;5072546;28;20041;-42
2023/04/30 09:08:03;;;;;;;3.20;0.90;;;9.90;99.90;;;;;;5072796;28;20053;-41
2023/04/30 09:10:31;;;;;;;3.75;1.08;;;9.90;99.90;;;;;;5056119;28;20131;-41
2023/04/30 09:13:00;;;;;;;1.80;0.77;;;9.90;99.90;;;;;;5073606;28;20047;-41
2023/04/30 09:15:26;;;;;;;3.55;1.00;;;9.80;99.90;;;;;;5073570;28;20113;-41
2023/04/30 09:18:09;;;;;;;4.25;1.20;;;9.90;99.90;;;;;;5073657;28;20044;-41
2023/04/30 09:20:35;;;;;;;5.75;1.00;;;9.90;99.90;;;;;;5073958;28;20415;-42
2023/04/30 09:23:09;;;;;;;4.93;1.10;;;10.00;99.90;;;;;;5073580;28;20361;-41
2023/04/30 09:25:41;;;;;;;4.13;1.05;;;10.00;99.90;;;;;;5073497;28;20044;-42
2023/04/30 09:28:12;;;;;;;4.25;1.10;;;10.00;99.90;;;;;;5073585;28;20048;-42
2023/04/30 09:30:41;;;;;;;3.00;0.85;;;10.10;99.90;;;;;;5073251;28;20395;-41
2023/04/30 09:33:07;;;;;;;2.67;0.95;;;10.20;99.90;;;;;;5072492;28;20479;-41
2023/04/30 09:35:35;;;;;;;5.33;1.03;;;10.10;99.90;;;;;;5072422;28;20057;-41
2023/04/30 09:38:01;;;;;;;2.42;1.10;;;10.10;99.90;;;;;;5073240;28;20113;-41
2023/04/30 09:40:40;;;;;;;;;;;10.20;99.90;;;;;;5073560;28;20542;-42
2023/04/30 09:43:07;;;;;;;1.98;0.68;;;10.20;99.90;;;;;;5072013;28;20390;-41
2023/04/30 09:45:46;;;;;;;3.25;0.88;;;10.20;99.90;;;;;;5073287;28;20113;-41
2023/04/30 09:48:14;;;;;;;4.45;1.05;;;10.30;99.90;;;;;;5072595;28;20501;-41
2023/04/30 09:50:41;;;;;;;4.22;0.98;;;10.30;99.90;;;;;;5073246;28;20048;-42
2023/04/30 09:53:08;;;;;;;;;;;10.30;99.90;;;;;;5056052;28;20075;-41
2023/04/30 09:55:37;;;;;;;5.18;1.00;;;10.40;99.90;;;;;;5072275;28;19924;-41
2023/04/30 09:58:06;;;;;;;3.03;0.90;;;10.50;99.90;;;;;;5073281;28;20045;-41
2023/04/30 10:00:34;;;;;;;3.40;0.82;;;10.50;99.90;;;;;;5071998;28;20045;-41
2023/04/30 10:03:13;;;;;;;2.00;0.80;;;10.60;99.90;;;;;;5073069;28;20044;-42
2023/04/30 10:05:47;;;;;;;2.55;0.88;;;10.60;99.90;;;;;;5072303;28;20126;-41
2023/04/30 10:08:32;;;;;;;3.00;0.77;;;10.70;99.90;;;;;;5072342;28;20098;-42
2023/04/30 10:11:03;;;;;;;2.25;0.90;;;10.90;99.90;;;;;;5073199;28;20040;-41
2023/04/30 10:13:51;;;;;;;3.05;1.10;;;10.90;99.90;;;;;;5074820;28;20055;-41
2023/04/30 10:16:26;;;;;;;2.10;0.93;;;11.10;99.90;;;;;;5076812;28;20109;-41
2023/04/30 10:18:53;;;;;;;2.30;0.90;;;11.10;99.90;;;;;;5075914;28;20084;-41
2023/04/30 10:21:26;;;;;;;2.97;1.00;;;11.20;99.90;;;;;;5075745;28;20055;-41
2023/04/30 10:23:53;;;;;;;3.53;1.00;;;11.30;99.90;;;;;;5075424;28;20044;-41
2023/04/30 10:26:19;;;;;;;4.70;1.27;;;11.30;99.90;;;;;;5075445;28;20049;-41
2023/04/30 10:28:47;;;;;;;3.22;1.13;;;11.40;99.90;;;;;;5075764;28;20125;-42
2023/04/30 10:31:14;;;;;;;3.42;1.35;;;11.40;99.90;;;;;;5075572;28;20131;-41
2023/04/30 10:34:08;;;;;;;3.33;1.00;;;11.40;99.90;;;;;;5076466;28;20051;-41
2023/04/30 10:36:55;;;;;;;4.85;1.10;;;11.40;99.90;;;;;;5070476;28;20495;-42
2023/04/30 10:39:23;;;;;;;2.83;1.08;;;11.50;99.90;;;;;;5075680;28;20504;-41
2023/04/30 10:41:48;;;;;;;3.20;0.98;;;11.60;99.90;;;;;;5075338;28;20060;-41
2023/04/30 10:44:20;;;;;;;3.55;1.00;;;11.70;99.90;;;;;;5075026;28;20044;-41
2023/04/30 10:46:45;;;;;;;5.78;1.13;;;11.80;99.90;;;;;;5075081;28;20044;-42
2023/04/30 10:49:13;;;;;;;3.13;1.53;;;11.90;99.90;;;;;;5074995;28;20102;-42
2023/04/30 10:51:55;;;;;;;2.83;0.80;;;12.10;99.90;;;;;;5076309;28;20117;-41
2023/04/30 10:54:26;;;;;;;2.25;0.90;;;12.30;99.90;;;;;;5074982;28;20057;-41
2023/04/30 10:56:55;;;;;;;3.55;1.05;;;12.40;99.90;;;;;;5075100;28;20114;-41
2023/04/30 10:59:21;;;;;;;3.67;0.80;;;12.60;99.90;;;;;;5075336;28;20051;-41
2023/04/30 11:01:58;;;;;;;5.05;1.90;;;12.70;99.90;;;;;;5091652;28;20059;-42
2023/04/30 11:04:25;;;;;;;7.72;0.93;;;12.80;99.90;;;;;;5076168;28;20506;-41
2023/04/30 11:07:09;;;;;;;4.95;0.93;;;13.00;99.90;;;;;;5074934;28;20526;-42
2023/04/30 11:09:39;;;;;;;3.67;1.00;;;13.20;99.90;;;;;;5075090;28;20082;-42
2023/04/30 11:12:13;;;;;;;3.88;0.70;;;13.40;99.90;;;;;;5074725;28;20123;-42
2023/04/30 11:14:43;;;;;;;2.58;0.88;;;13.70;99.90;;;;;;5074821;28;20040;-42
2023/04/30 11:17:11;;;;;;;1.77;0.80;;;13.80;99.90;;;;;;5074505;28;20127;-42
2023/04/30 11:19:46;;;;;;;4.03;0.80;;;14.00;99.90;;;;;;5075566;28;20044;-41
2023/04/30 11:22:12;;;;;;;3.10;0.80;;;14.10;99.90;;;;;;5074481;28;20044;-41
2023/04/30 11:24:54;;;;;;;2.07;0.57;;;14.00;99.90;;;;;;5057756;28;20048;-42
2023/04/30 11:27:24;;;;;;;3.55;0.93;;;13.90;99.90;;;;;;5075583;28;20049;-42
2023/04/30 11:29:51;;;;;;;4.65;0.90;;;13.90;99.90;;;;;;5075530;28;20091;-42
2023/04/30 11:32:18;;;;;;;2.25;1.00;;;14.00;99.90;;;;;;5074485;28;20045;-42
2023/04/30 11:34:45;;;;;;;2.20;1.08;;;14.10;99.90;;;;;;5057773;28;20110;-42
2023/04/30 11:37:28;;;;;;;3.75;0.60;;;14.20;99.90;;;;;;5057595;28;20045;-42
2023/04/30 11:39:56;;;;;;;4.50;1.02;;;14.30;99.90;;;;;;5075397;28;20088;-42
2023/04/30 11:42:22;;;;;;;3.47;0.80;;;14.30;99.90;;;;;;5075259;28;20040;-42
2023/04/30 11:44:47;;;;;;;2.63;0.97;;;14.40;99.90;;;;;;5074159;28;20502;-42
2023/04/30 11:47:16;;;;;;;2.77;0.70;;;14.50;99.90;;;;;;5075109;28;20511;-42
2023/04/30 11:49:42;;;;;;;2.47;0.75;;;14.60;99.90;;;;;;5074015;28;20048;-42
2023/04/30 11:52:08;;;;;;;4.03;1.13;;;14.80;99.90;;;;;;5074814;28;20548;-42
2023/04/30 11:54:38;;;;;;;3.95;1.00;;;15.00;99.90;;;;;;5073488;28;20131;-42
2023/04/30 11:57:04;;;;;;;2.92;1.17;;;15.00;99.90;;;;;;5074786;28;20522;-42
2023/04/30 11:59:39;;;;;;;3.85;0.77;;;15.00;99.90;;;;;;5074913;28;20411;-42
2023/04/30 12:02:05;;;;;;;2.60;0.80;;;15.10;99.90;;;;;;5074768;28;20056;-42
2023/04/30 12:04:31;;;;;;;3.70;1.27;;;15.20;99.90;;;;;;5074622;28;20048;-42
2023/04/30 12:06:57;;;;;;;1.90;0.70;;;15.20;99.90;;;;;;5075148;28;20051;-42
2023/04/30 12:09:23;;;;;;;3.20;1.10;;;15.30;99.90;;;;;;5074727;28;20106;-42
2023/04/30 12:11:48;;;;;;;2.87;0.93;;;15.30;99.90;;;;;;5074742;28;20072;-42
2023/04/30 12:14:14;;;;;;;2.87;1.10;;;15.40;99.90;;;;;;5073377;28;20688;-42
2023/04/30 12:16:44;;;;;;;2.78;1.00;;;15.50;99.90;;;;;;5073415;28;20052;-42
2023/04/30 12:19:11;;;;;;;3.30;1.05;;;15.50;99.90;;;;;;5073520;28;20169;-42
2023/04/30 12:21:39;;;;;;;2.47;0.90;;;15.40;99.90;;;;;;5073435;28;20476;-42
2023/04/30 12:24:06;;;;;;;2.95;1.08;;;15.50;99.90;;;;;;5074244;28;20040;-42
2023/04/30 12:26:37;;;;;;;2.90;1.05;;;15.50;99.90;;;;;;5074316;28;20127;-42
2023/04/30 12:29:15;;;;;;;2.60;1.17;;;15.60;99.90;;;;;;5056827;28;20093;-42
2023/04/30 12:31:42;;;;;;;5.88;1.20;;;15.60;99.90;;;;;;5074628;28;20076;-42
2023/04/30 12:34:11;;;;;;;3.38;1.00;;;15.60;99.90;;;;;;5073199;28;20048;-42
2023/04/30 12:36:41;;;;;;;4.00;1.08;;;15.60;99.90;;;;;;5056099;28;20057;-42
2023/04/30 12:39:16;;;;;;;3.40;1.35;;;15.50;99.90;;;;;;5073441;28;20056;-42
2023/04/30 12:41:42;;;;;;;4.03;1.38;;;15.50;99.90;;;;;;5073045;28;20052;-42
2023/04/30 12:44:15;;;;;;;;;;;15.40;99.90;;;;;;5073296;28;20044;-42
2023/04/30 12:46:41;;;;;;;2.35;0.88;;;15.50;99.90;;;;;;5072891;28;19920;-42
2023/04/30 12:49:07;;;;;;;2.63;0.85;;;15.50;99.90;;;;;;5056445;28;20040;-42
2023/04/30 12:51:34;;;;;;;2.47;1.10;;;15.50;99.90;;;;;;5074032;28;20498;-42
2023/04/30 12:54:00;;;;;;;2.97;1.02;;;15.50;99.90;;;;;;5072590;28;20056;-42
2023/04/30 12:56:26;;;;;;;3.45;1.40;;;15.50;99.90;;;;;;5073686;28;20499;-42
2023/04/30 12:58:52;;;;;;;4.22;1.20;;;15.60;99.90;;;;;;5073992;28;20071;-42